createdAt,value
2023-01-18T00:00:21.562Z,85.45
2023-01-18T00:02:49.301Z,85.56
2023-01-18T00:05:15.964Z,85.92
2023-01-18T00:07:42.472Z,85.58
2023-01-18T00:10:09.446Z,85.94
2023-01-18T00:12:35.895Z,85.92
2023-01-18T00:15:02.385Z,86.38
2023-01-18T00:17:28.873Z,85.86
2023-01-18T00:19:55.319Z,85.99
2023-01-18T00:22:22.798Z,85.92
2023-01-18T00:24:49.309Z,86.22
2023-01-18T00:27:15.789Z,86.21
2023-01-18T00:29:42.361Z,86.25
2023-01-18T00:32:08.843Z,85.88
2023-01-18T00:34:36.305Z,85.85
2023-01-18T00:37:02.818Z,85.73
2023-01-18T00:39:29.312Z,85.92
2023-01-18T00:42:14.380Z,86.38
2023-01-18T00:44:40.874Z,86.20
2023-01-18T00:47:07.355Z,86.24
2023-01-18T00:49:35.118Z,85.80
2023-01-18T00:52:01.596Z,85.71
2023-01-18T00:54:28.137Z,85.82
2023-01-18T00:56:54.658Z,85.70
2023-01-18T00:59:21.170Z,85.61
2023-01-18T01:01:48.013Z,85.40
2023-01-18T01:04:33.110Z,85.22
2023-01-18T01:06:59.588Z,85.29
2023-01-18T01:09:29.237Z,85.58
2023-01-18T01:12:16.422Z,85.32
2023-01-18T01:15:04.623Z,85.59
2023-01-18T01:17:51.145Z,85.17
2023-01-18T01:20:37.149Z,85.62
2023-01-18T01:23:28.328Z,85.72
2023-01-18T01:26:08.590Z,85.55
2023-01-18T01:28:36.424Z,85.68
2023-01-18T01:31:04.549Z,85.48
2023-01-18T01:33:32.586Z,85.80
2023-01-18T01:36:05.572Z,85.91
2023-01-18T01:38:32.415Z,85.84
2023-01-18T01:41:07.634Z,85.44
2023-01-18T01:43:42.167Z,85.50
2023-01-18T01:46:15.564Z,85.79
2023-01-18T01:48:42.567Z,85.99
2023-01-18T01:51:09.860Z,86.35
2023-01-18T01:53:36.362Z,86.13
2023-01-18T01:56:05.835Z,85.91
2023-01-18T01:58:32.491Z,85.98
2023-01-18T02:00:59.474Z,86.33
2023-01-18T02:03:26.163Z,86.14
2023-01-18T02:06:01.269Z,86.17
2023-01-18T02:08:28.452Z,86.68
2023-01-18T02:10:54.937Z,86.63
2023-01-18T02:13:24.224Z,86.25
2023-01-18T02:16:06.014Z,86.20
2023-01-18T02:18:48.810Z,85.93
2023-01-18T02:21:23.595Z,85.92
2023-01-18T02:24:13.714Z,85.95
2023-01-18T02:26:55.466Z,85.68
2023-01-18T02:29:38.552Z,85.89
2023-01-18T02:32:25.039Z,85.57
2023-01-18T02:35:01.101Z,85.45
2023-01-18T02:37:48.658Z,85.04
2023-01-18T02:40:22.664Z,85.12
2023-01-18T02:43:08.166Z,85.35
2023-01-18T02:45:58.288Z,85.60
2023-01-18T02:48:30.372Z,85.29
2023-01-18T02:50:56.805Z,85.07
2023-01-18T02:53:23.444Z,85.28
2023-01-18T02:55:56.403Z,85.42
2023-01-18T02:58:33.292Z,85.54
2023-01-18T03:01:09.671Z,85.96
2023-01-18T03:03:37.872Z,85.41
2023-01-18T03:06:08.855Z,85.78
2023-01-18T03:08:41.439Z,85.94
2023-01-18T03:11:14.227Z,85.71
2023-01-18T03:13:51.736Z,85.81
2023-01-18T03:16:24.351Z,85.77
2023-01-18T03:19:01.655Z,85.84
2023-01-18T03:21:45.389Z,85.91
2023-01-18T03:24:13.290Z,85.55
2023-01-18T03:26:45.764Z,85.78
2023-01-18T03:29:33.359Z,85.94
2023-01-18T03:32:27.531Z,85.65
2023-01-18T03:35:00.424Z,85.54
2023-01-18T03:37:31.577Z,85.75
2023-01-18T03:40:02.767Z,86.01
2023-01-18T03:42:39.804Z,85.79
2023-01-18T03:45:16.071Z,85.61
2023-01-18T03:47:42.599Z,85.52
2023-01-18T03:50:09.819Z,85.46
2023-01-18T03:52:42.630Z,85.77
2023-01-18T03:55:17.014Z,86.25
2023-01-18T03:57:56.132Z,85.94
2023-01-18T04:00:23.781Z,86.27
2023-01-18T04:02:50.802Z,85.63
2023-01-18T04:05:18.149Z,86.00
2023-01-18T04:07:44.852Z,85.64
2023-01-18T04:10:12.058Z,85.85
2023-01-18T04:12:38.636Z,85.96
2023-01-18T04:15:05.645Z,85.52
2023-01-18T04:17:32.245Z,85.92
2023-01-18T04:19:58.720Z,86.03
2023-01-18T04:22:25.481Z,85.82
2023-01-18T04:24:52.935Z,85.81
2023-01-18T04:27:19.432Z,86.18
2023-01-18T04:29:45.853Z,86.38
2023-01-18T04:32:12.348Z,86.50
2023-01-18T04:34:39.769Z,86.10
2023-01-18T04:37:06.379Z,86.00
2023-01-18T04:39:32.881Z,86.01
2023-01-18T04:41:59.554Z,85.98
2023-01-18T04:44:26.046Z,85.58
2023-01-18T04:46:52.704Z,85.97
2023-01-18T04:49:19.361Z,85.44
2023-01-18T04:51:46.901Z,85.81
2023-01-18T04:54:15.812Z,85.97
2023-01-18T04:56:42.332Z,86.04
2023-01-18T04:59:14.879Z,86.20
2023-01-18T05:01:41.493Z,86.16
2023-01-18T05:04:07.992Z,86.51
2023-01-18T05:06:34.470Z,86.21
2023-01-18T05:09:00.951Z,86.44
2023-01-18T05:11:27.439Z,85.84
2023-01-18T05:13:53.950Z,86.46
2023-01-18T05:16:22.477Z,86.40
2023-01-18T05:18:49.752Z,86.32
2023-01-18T05:21:16.510Z,86.10
2023-01-18T05:23:43.976Z,85.97
2023-01-18T05:26:18.671Z,85.95
2023-01-18T05:28:46.048Z,85.97
2023-01-18T05:31:13.830Z,86.03
2023-01-18T05:33:40.751Z,86.14
2023-01-18T05:36:09.080Z,86.27
2023-01-18T05:38:36.880Z,86.09
2023-01-18T05:41:03.424Z,85.85
2023-01-18T05:43:30.163Z,85.96
2023-01-18T05:45:57.398Z,86.16
2023-01-18T05:48:24.808Z,86.18
2023-01-18T05:50:51.828Z,85.96
2023-01-18T05:53:20.746Z,86.24
2023-01-18T05:55:56.435Z,85.93
2023-01-18T05:58:24.078Z,86.58
2023-01-18T06:00:50.690Z,86.15
2023-01-18T06:03:17.202Z,86.38
2023-01-18T06:05:43.883Z,86.03
2023-01-18T06:08:10.557Z,86.06
2023-01-18T06:10:37.028Z,86.02
2023-01-18T06:13:03.571Z,86.04
2023-01-18T06:15:30.040Z,85.97
2023-01-18T06:17:56.691Z,86.11
2023-01-18T06:20:23.174Z,86.17
2023-01-18T06:22:49.636Z,86.11
2023-01-18T06:25:16.683Z,86.42
2023-01-18T06:27:44.161Z,86.56
2023-01-18T06:30:11.099Z,86.90
2023-01-18T06:32:38.137Z,86.93
2023-01-18T06:35:07.014Z,86.73
2023-01-18T06:37:33.583Z,86.98
2023-01-18T06:40:02.610Z,87.39
2023-01-18T06:42:29.290Z,86.88
2023-01-18T06:44:55.823Z,86.82
2023-01-18T06:47:22.460Z,86.90
2023-01-18T06:49:49.973Z,87.05
2023-01-18T06:52:16.614Z,87.18
2023-01-18T06:54:44.768Z,87.48
2023-01-18T06:57:12.151Z,87.52
2023-01-18T06:59:39.663Z,87.46
2023-01-18T07:02:06.630Z,87.36
2023-01-18T07:04:35.690Z,87.00
2023-01-18T07:07:02.301Z,87.18
2023-01-18T07:09:28.906Z,87.03
2023-01-18T07:11:55.383Z,86.85
2023-01-18T07:14:22.234Z,87.37
2023-01-18T07:16:48.768Z,87.11
2023-01-18T07:19:16.347Z,86.92
2023-01-18T07:21:42.912Z,86.96
2023-01-18T07:24:09.386Z,87.00
2023-01-18T07:26:35.858Z,87.10
2023-01-18T07:29:02.427Z,86.65
2023-01-18T07:31:30.188Z,87.00
2023-01-18T07:33:56.769Z,86.90
2023-01-18T07:36:23.357Z,86.48
2023-01-18T07:38:49.896Z,86.96
2023-01-18T07:41:17.047Z,87.33
2023-01-18T07:43:44.843Z,87.06
2023-01-18T07:46:17.017Z,87.67
2023-01-18T07:48:44.662Z,87.04
2023-01-18T07:51:11.601Z,87.04
2023-01-18T07:53:38.984Z,87.15
2023-01-18T07:56:09.571Z,86.91
2023-01-18T07:58:37.506Z,87.48
2023-01-18T08:01:06.370Z,87.34
2023-01-18T08:03:33.049Z,87.09
2023-01-18T08:06:00.734Z,87.35
2023-01-18T08:08:28.814Z,87.48
2023-01-18T08:10:58.877Z,87.44
2023-01-18T08:13:27.120Z,87.59
2023-01-18T08:15:54.807Z,87.64
2023-01-18T08:18:21.334Z,87.93
2023-01-18T08:20:49.333Z,87.68
2023-01-18T08:23:17.084Z,88.04
2023-01-18T08:25:44.870Z,87.51
2023-01-18T08:28:11.688Z,87.61
2023-01-18T08:30:41.996Z,88.05
2023-01-18T08:33:08.947Z,88.46
2023-01-18T08:35:43.002Z,88.46
2023-01-18T08:38:11.273Z,88.45
2023-01-18T08:40:38.404Z,88.61
2023-01-18T08:43:05.592Z,88.48
2023-01-18T08:45:33.112Z,88.44
2023-01-18T08:48:02.377Z,88.32
2023-01-18T08:50:29.941Z,88.71
2023-01-18T08:52:57.418Z,88.47
2023-01-18T08:55:25.056Z,88.31
2023-01-18T08:57:54.582Z,88.70
2023-01-18T09:00:23.834Z,88.84
2023-01-18T09:02:50.666Z,88.37
2023-01-18T09:05:17.220Z,88.48
2023-01-18T09:07:45.377Z,88.53
2023-01-18T09:10:12.401Z,88.54
2023-01-18T09:12:39.616Z,88.30
2023-01-18T09:15:06.701Z,88.65
2023-01-18T09:17:33.643Z,88.48
2023-01-18T09:20:00.199Z,87.98
2023-01-18T09:22:26.687Z,88.26
2023-01-18T09:24:53.164Z,88.10
2023-01-18T09:27:20.729Z,87.91
2023-01-18T09:29:53.015Z,87.63
2023-01-18T09:32:21.187Z,87.51
2023-01-18T09:34:50.704Z,87.46
2023-01-18T09:37:19.043Z,87.31
2023-01-18T09:39:51.828Z,87.20
2023-01-18T09:42:22.657Z,87.40
2023-01-18T09:44:52.737Z,87.40
2023-01-18T09:47:25.959Z,86.92
2023-01-18T09:49:58.070Z,87.01
2023-01-18T09:52:38.288Z,86.94
2023-01-18T09:55:24.426Z,86.98
2023-01-18T09:58:00.491Z,86.86
2023-01-18T10:00:30.755Z,86.86
2023-01-18T10:03:01.630Z,86.64
2023-01-18T10:05:33.316Z,86.61
2023-01-18T10:08:07.660Z,86.68
2023-01-18T10:10:39.096Z,86.78
2023-01-18T10:13:42.875Z,86.32
2023-01-18T10:16:14.906Z,86.36
2023-01-18T10:18:45.784Z,86.67
2023-01-18T10:21:22.599Z,86.54
2023-01-18T10:24:30.625Z,86.48
2023-01-18T10:27:14.732Z,86.64
2023-01-18T10:30:15.038Z,86.64
2023-01-18T10:32:50.811Z,86.24
2023-01-18T10:35:28.016Z,86.22
2023-01-18T10:37:59.140Z,86.00
2023-01-18T10:40:26.171Z,86.21
2023-01-18T10:42:57.277Z,86.23
2023-01-18T10:45:28.204Z,85.61
2023-01-18T10:47:56.923Z,85.80
2023-01-18T10:50:37.160Z,85.45
2023-01-18T10:53:24.908Z,85.51
2023-01-18T10:56:02.080Z,85.01
2023-01-18T10:58:33.786Z,85.57
2023-01-18T11:01:02.217Z,85.03
2023-01-18T11:03:44.880Z,85.36
2023-01-18T11:06:11.375Z,85.63
2023-01-18T11:08:38.046Z,85.41
2023-01-18T11:11:06.910Z,85.23
2023-01-18T11:13:44.793Z,85.25
2023-01-18T11:16:16.032Z,84.96
2023-01-18T11:18:58.066Z,84.70
2023-01-18T11:21:30.860Z,84.47
2023-01-18T11:23:59.271Z,84.39
2023-01-18T11:26:26.063Z,84.69
2023-01-18T11:29:00.168Z,84.63
2023-01-18T11:31:30.739Z,84.45
2023-01-18T11:34:01.862Z,84.29
2023-01-18T11:36:36.650Z,84.31
2023-01-18T11:39:24.841Z,84.13
2023-01-18T11:42:09.772Z,84.19
2023-01-18T11:44:40.141Z,83.60
2023-01-18T11:47:16.562Z,83.62
2023-01-18T11:50:10.369Z,83.49
2023-01-18T11:52:51.800Z,83.53
2023-01-18T11:55:26.154Z,83.72
2023-01-18T11:57:54.132Z,83.40
2023-01-18T12:00:29.043Z,83.72
2023-01-18T12:03:14.079Z,83.64
2023-01-18T12:06:06.228Z,83.52
2023-01-18T12:08:38.441Z,83.37
2023-01-18T12:11:21.092Z,83.63
2023-01-18T12:14:00.035Z,83.87
2023-01-18T12:16:58.694Z,83.10
2023-01-18T12:19:53.537Z,83.04
2023-01-18T12:22:42.230Z,83.56
2023-01-18T12:25:21.951Z,83.21
2023-01-18T12:28:23.383Z,83.21
2023-01-18T12:31:06.027Z,83.10
2023-01-18T12:33:50.457Z,82.97
2023-01-18T12:36:29.063Z,83.09
2023-01-18T12:38:59.974Z,83.54
2023-01-18T12:41:35.243Z,84.04
2023-01-18T12:44:34.155Z,83.50
2023-01-18T12:47:07.456Z,83.73
2023-01-18T12:49:40.478Z,83.45
2023-01-18T12:52:18.571Z,83.61
2023-01-18T12:54:52.081Z,83.49
2023-01-18T12:57:21.007Z,83.57
2023-01-18T12:59:58.988Z,83.73
2023-01-18T13:02:34.476Z,83.06
2023-01-18T13:05:20.696Z,83.21
2023-01-18T13:08:07.359Z,83.41
2023-01-18T13:10:36.549Z,83.50
2023-01-18T13:13:06.056Z,83.55
2023-01-18T13:15:57.158Z,83.23
2023-01-18T13:18:34.419Z,83.07
2023-01-18T13:21:18.182Z,83.37
2023-01-18T13:23:52.814Z,82.85
2023-01-18T13:26:24.991Z,82.89
2023-01-18T13:29:24.247Z,82.89
2023-01-18T13:31:51.371Z,82.72
2023-01-18T13:34:29.024Z,82.83
2023-01-18T13:43:50.879Z,83.05
2023-01-18T13:46:26.113Z,82.90
2023-01-18T13:48:56.778Z,82.98
2023-01-18T13:51:37.731Z,82.47
2023-01-18T13:54:05.043Z,82.54
2023-01-18T13:56:37.572Z,82.10
2023-01-18T14:01:40.689Z,82.56
2023-01-18T14:04:16.164Z,82.41
2023-01-18T14:06:45.230Z,82.80
2023-01-18T14:09:15.032Z,82.81
2023-01-18T14:11:52.564Z,83.10
2023-01-18T14:14:20.599Z,82.69
2023-01-18T14:17:15.091Z,83.06
2023-01-18T14:19:48.629Z,83.16
2023-01-18T14:22:33.570Z,83.11
2023-01-18T14:25:04.050Z,83.15
2023-01-18T14:27:38.352Z,82.90
2023-01-18T14:30:07.239Z,82.89
2023-01-18T14:32:40.077Z,82.77
2023-01-18T14:35:20.646Z,83.04
2023-01-18T14:37:48.374Z,82.68
2023-01-18T14:40:25.463Z,83.04
2023-01-18T14:42:55.360Z,82.87
2023-01-18T14:45:29.031Z,82.61
2023-01-18T14:48:00.500Z,82.38
2023-01-18T14:50:32.915Z,83.03
2023-01-18T14:53:00.513Z,82.87
2023-01-18T14:55:30.646Z,82.92
2023-01-18T14:58:08.325Z,82.99
2023-01-18T15:00:50.038Z,82.63
2023-01-18T15:03:28.740Z,83.29
2023-01-18T15:06:08.078Z,83.34
2023-01-18T15:08:35.054Z,83.08
2023-01-18T15:11:05.173Z,83.29
2023-01-18T15:13:33.697Z,83.65
2023-01-18T15:16:02.203Z,83.48
2023-01-18T15:18:29.398Z,83.57
2023-01-18T15:20:58.475Z,83.22
2023-01-18T15:23:27.713Z,84.01
2023-01-18T15:25:55.540Z,84.02
2023-01-18T15:28:24.416Z,83.90
2023-01-18T15:30:53.951Z,83.85
2023-01-18T15:33:24.636Z,83.78
2023-01-18T15:35:59.175Z,84.44
2023-01-18T15:38:26.651Z,84.34
2023-01-18T15:40:58.502Z,84.31
2023-01-18T15:43:33.445Z,84.59
2023-01-18T15:46:01.641Z,84.80
2023-01-18T15:48:44.387Z,84.58
2023-01-18T15:51:11.062Z,84.47
2023-01-18T15:53:45.778Z,84.74
2023-01-18T15:56:18.256Z,84.79
2023-01-18T15:58:50.104Z,84.66
2023-01-18T16:01:20.571Z,84.48
2023-01-18T16:03:48.221Z,85.33
2023-01-18T16:06:19.853Z,85.14
2023-01-18T16:09:12.431Z,85.29
2023-01-18T16:11:40.542Z,85.69
2023-01-18T16:14:22.850Z,85.19
2023-01-18T16:16:49.994Z,85.63
2023-01-18T16:19:24.509Z,85.62
2023-01-18T16:21:55.331Z,85.35
2023-01-18T16:24:31.637Z,85.85
2023-01-18T16:27:09.654Z,86.02
2023-01-18T16:29:43.897Z,86.08
2023-01-18T16:32:18.429Z,86.38
2023-01-18T16:34:45.825Z,86.07
2023-01-18T16:37:12.445Z,86.62
2023-01-18T16:39:40.364Z,87.16
2023-01-18T16:42:09.626Z,86.79
2023-01-18T16:44:36.324Z,86.80
2023-01-18T16:47:02.853Z,87.11
2023-01-18T16:49:29.491Z,87.38
2023-01-18T16:51:56.280Z,87.11
2023-01-18T16:54:22.943Z,87.05
2023-01-18T16:56:50.091Z,86.99
2023-01-18T16:59:20.539Z,87.33
2023-01-18T17:01:47.598Z,87.34
2023-01-18T17:04:15.737Z,87.25
2023-01-18T17:06:43.106Z,87.65
2023-01-18T17:09:20.996Z,87.94
2023-01-18T17:11:48.501Z,87.34
2023-01-18T17:14:15.221Z,87.69
2023-01-18T17:16:43.264Z,87.39
2023-01-18T17:19:12.449Z,87.36
2023-01-18T17:21:39.394Z,87.64
2023-01-18T17:24:06.131Z,87.79
2023-01-18T17:26:33.102Z,87.87
2023-01-18T17:28:59.632Z,87.92
2023-01-18T17:31:27.411Z,88.40
2023-01-18T17:33:54.369Z,87.72
2023-01-18T17:36:21.988Z,88.10
2023-01-18T17:38:48.451Z,88.00
2023-01-18T17:41:27.702Z,88.43
2023-01-18T17:43:55.171Z,87.89
2023-01-18T17:46:22.675Z,88.04
2023-01-18T17:48:49.739Z,88.21
2023-01-18T17:51:16.520Z,87.87
2023-01-18T17:53:43.512Z,88.03
2023-01-18T17:56:12.174Z,87.84
2023-01-18T17:58:39.585Z,88.04
2023-01-18T18:01:07.346Z,88.69
2023-01-18T18:03:34.988Z,88.42
2023-01-18T18:06:02.322Z,88.56
2023-01-18T18:08:29.349Z,89.21
2023-01-18T18:10:59.663Z,89.56
2023-01-18T18:13:27.742Z,89.69
2023-01-18T18:15:54.736Z,89.92
2023-01-18T18:18:23.605Z,90.14
2023-01-18T18:20:58.546Z,90.09
2023-01-18T18:23:26.000Z,90.50
2023-01-18T18:25:52.698Z,90.53
2023-01-18T18:28:19.704Z,90.47
2023-01-18T18:30:49.781Z,90.72
2023-01-18T18:33:16.310Z,90.27
2023-01-18T18:35:42.776Z,90.50
2023-01-18T18:38:09.317Z,90.53
2023-01-18T18:40:35.858Z,90.57
2023-01-18T18:43:03.243Z,90.81
2023-01-18T18:45:31.741Z,90.30
2023-01-18T18:47:58.647Z,90.74
2023-01-18T18:50:25.275Z,90.26
2023-01-18T18:52:51.908Z,90.37
2023-01-18T18:55:18.989Z,90.60
2023-01-18T18:57:45.523Z,90.65
2023-01-18T19:00:12.696Z,90.68
2023-01-18T19:02:39.431Z,90.50
2023-01-18T19:05:07.787Z,90.73
2023-01-18T19:07:35.017Z,90.50
2023-01-18T19:10:01.629Z,90.39
2023-01-18T19:12:28.150Z,90.78
2023-01-18T19:14:54.631Z,90.73
2023-01-18T19:17:29.864Z,90.64
2023-01-18T19:19:57.525Z,90.86
2023-01-18T19:22:26.281Z,90.95
2023-01-18T19:24:52.981Z,90.49
2023-01-18T19:27:21.166Z,91.02
2023-01-18T19:29:47.717Z,91.39
2023-01-18T19:32:14.178Z,90.99
2023-01-18T19:34:41.176Z,90.56
2023-01-18T19:37:07.852Z,91.05
2023-01-18T19:39:35.797Z,90.79
2023-01-18T19:42:02.600Z,91.32
2023-01-18T19:44:29.540Z,91.25
2023-01-18T19:46:56.972Z,91.56
2023-01-18T19:49:26.318Z,91.60
2023-01-18T19:51:54.653Z,91.90
2023-01-18T19:54:21.870Z,91.86
2023-01-18T19:56:48.701Z,92.08
2023-01-18T19:59:15.332Z,92.27
2023-01-18T20:01:42.120Z,92.62
2023-01-18T20:04:08.865Z,92.74
2023-01-18T20:06:38.490Z,92.89
2023-01-18T20:09:15.776Z,92.93
2023-01-18T20:11:45.608Z,92.83
2023-01-18T20:14:14.057Z,93.08
2023-01-18T20:16:40.920Z,93.04
2023-01-18T20:19:07.664Z,93.23
2023-01-18T20:21:34.295Z,92.96
2023-01-18T20:24:01.035Z,92.86
2023-01-18T20:26:36.732Z,93.06
2023-01-18T20:29:07.185Z,93.18
2023-01-18T20:31:36.255Z,93.23
2023-01-18T20:34:04.208Z,92.74
2023-01-18T20:36:30.933Z,92.79
2023-01-18T20:38:57.822Z,93.03
2023-01-18T20:41:24.512Z,92.84
2023-01-18T20:43:52.579Z,93.06
2023-01-18T20:46:19.203Z,92.71
2023-01-18T20:48:47.603Z,92.81
2023-01-18T20:51:15.130Z,92.89
2023-01-18T20:53:41.638Z,92.75
2023-01-18T20:56:20.006Z,93.21
2023-01-18T20:58:54.372Z,93.03
2023-01-18T21:01:21.049Z,92.64
2023-01-18T21:03:53.715Z,93.07
2023-01-18T21:06:21.253Z,92.92
2023-01-18T21:08:47.763Z,92.77
2023-01-18T21:11:17.537Z,92.62
2023-01-18T21:13:44.217Z,92.83
2023-01-18T21:16:11.033Z,92.89
2023-01-18T21:18:40.186Z,92.76
2023-01-18T21:21:06.792Z,92.85
2023-01-18T21:23:39.748Z,92.90
2023-01-18T21:26:09.029Z,93.01
2023-01-18T21:28:36.158Z,93.07
2023-01-18T21:31:04.176Z,93.54
2023-01-18T21:33:31.571Z,93.58
2023-01-18T21:36:04.022Z,93.88
2023-01-18T21:38:30.839Z,94.12
2023-01-18T21:40:57.324Z,94.39
2023-01-18T21:43:42.488Z,94.38
2023-01-18T21:46:10.992Z,94.11
2023-01-18T21:48:37.699Z,94.43
2023-01-18T21:51:23.587Z,94.32
2023-01-18T21:54:08.436Z,94.02
2023-01-18T21:56:38.156Z,94.61
2023-01-18T21:59:04.667Z,94.64
2023-01-18T22:01:34.489Z,94.56
2023-01-18T22:04:21.302Z,94.16
2023-01-18T22:06:48.302Z,93.58
2023-01-18T22:09:15.382Z,93.63
2023-01-18T22:11:42.087Z,93.43
2023-01-18T22:14:09.545Z,93.39
2023-01-18T22:16:36.420Z,93.78
2023-01-18T22:19:04.907Z,93.64
2023-01-18T22:21:32.667Z,93.29
2023-01-18T22:23:59.807Z,93.50
2023-01-18T22:26:28.886Z,92.94
2023-01-18T22:28:55.919Z,93.23
2023-01-18T22:31:23.877Z,92.87
2023-01-18T22:33:50.448Z,93.23
2023-01-18T22:36:17.907Z,92.66
2023-01-18T22:38:45.573Z,93.12
2023-01-18T22:41:16.406Z,93.18
2023-01-18T22:43:44.144Z,92.68
2023-01-18T22:46:13.916Z,93.14
2023-01-18T22:48:40.946Z,93.07
2023-01-18T22:51:08.769Z,93.43
2023-01-18T22:53:35.309Z,92.96
2023-01-18T22:56:03.567Z,92.75
2023-01-18T22:58:30.765Z,93.07
2023-01-18T23:00:57.355Z,93.07
2023-01-18T23:03:23.948Z,93.17
2023-01-18T23:05:58.646Z,92.69
2023-01-18T23:08:43.377Z,93.14
2023-01-18T23:11:15.683Z,93.48
2023-01-18T23:13:43.988Z,93.12
2023-01-18T23:16:32.996Z,93.17
2023-01-18T23:18:59.471Z,93.58
2023-01-18T23:21:25.951Z,93.59
2023-01-18T23:23:52.409Z,93.80
2023-01-18T23:26:18.911Z,93.96
2023-01-18T23:28:45.447Z,94.01
2023-01-18T23:31:14.733Z,94.31
2023-01-18T23:33:41.984Z,94.32
2023-01-18T23:36:12.422Z,94.63
2023-01-18T23:38:57.481Z,94.38
2023-01-18T23:41:42.933Z,94.48
2023-01-18T23:44:29.145Z,94.72
2023-01-18T23:47:16.199Z,94.92
2023-01-18T23:50:01.058Z,94.93
2023-01-18T23:52:46.516Z,95.35
2023-01-18T23:55:13.035Z,95.18
2023-01-18T23:57:39.540Z,95.27
